sensor_id;sensor_type;location;lat;lon;timestamp;pressure;altitude;pressure_sealevel;temperature
41654;BMP280;30790;52.030;7.110;2022-12-11T00:00:36;100393.38;;;19.79
41654;BMP280;30790;52.030;7.110;2022-12-11T00:03:02;100399.06;;;19.77
41654;BMP280;30790;52.030;7.110;2022-12-11T00:05:27;100402.34;;;19.79
41654;BMP280;30790;52.030;7.110;2022-12-11T00:07:52;100399.38;;;19.81
41654;BMP280;30790;52.030;7.110;2022-12-11T00:10:18;100400.72;;;19.78
41654;BMP280;30790;52.030;7.110;2022-12-11T00:12:43;100396.34;;;19.77
41654;BMP280;30790;52.030;7.110;2022-12-11T00:15:08;100396.91;;;19.79
41654;BMP280;30790;52.030;7.110;2022-12-11T00:17:34;100395.84;;;19.80
41654;BMP280;30790;52.030;7.110;2022-12-11T00:19:59;100395.50;;;19.77
41654;BMP280;30790;52.030;7.110;2022-12-11T00:22:24;100381.31;;;19.74
41654;BMP280;30790;52.030;7.110;2022-12-11T00:24:50;100390.06;;;19.77
41654;BMP280;30790;52.030;7.110;2022-12-11T00:27:15;100382.72;;;19.77
41654;BMP280;30790;52.030;7.110;2022-12-11T00:29:40;100390.31;;;19.75
41654;BMP280;30790;52.030;7.110;2022-12-11T00:32:06;100391.41;;;19.74
41654;BMP280;30790;52.030;7.110;2022-12-11T00:34:31;100386.78;;;19.74
41654;BMP280;30790;52.030;7.110;2022-12-11T00:36:56;100389.75;;;19.73
41654;BMP280;30790;52.030;7.110;2022-12-11T00:39:23;100382.03;;;19.70
41654;BMP280;30790;52.030;7.110;2022-12-11T00:41:48;100382.03;;;19.70
41654;BMP280;30790;52.030;7.110;2022-12-11T00:44:13;100375.44;;;19.66
41654;BMP280;30790;52.030;7.110;2022-12-11T00:46:38;100389.38;;;19.69
41654;BMP280;30790;52.030;7.110;2022-12-11T00:49:04;100385.84;;;19.69
41654;BMP280;30790;52.030;7.110;2022-12-11T00:51:29;100392.38;;;19.68
41654;BMP280;30790;52.030;7.110;2022-12-11T00:53:54;100376.78;;;19.63
41654;BMP280;30790;52.030;7.110;2022-12-11T00:56:21;100388.25;;;19.65
41654;BMP280;30790;52.030;7.110;2022-12-11T00:58:47;100383.06;;;19.64
41654;BMP280;30790;52.030;7.110;2022-12-11T01:01:20;100376.47;;;19.60
41654;BMP280;30790;52.030;7.110;2022-12-11T01:03:45;100379.75;;;19.62
41654;BMP280;30790;52.030;7.110;2022-12-11T01:06:16;100380.56;;;19.62
41654;BMP280;30790;52.030;7.110;2022-12-11T01:08:42;100378.09;;;19.61
41654;BMP280;30790;52.030;7.110;2022-12-11T01:11:09;100374.81;;;19.59
41654;BMP280;30790;52.030;7.110;2022-12-11T01:13:36;100374.81;;;19.59
41654;BMP280;30790;52.030;7.110;2022-12-11T01:16:07;100367.22;;;19.61
41654;BMP280;30790;52.030;7.110;2022-12-11T01:18:33;100367.13;;;19.56
41654;BMP280;30790;52.030;7.110;2022-12-11T01:20:58;100368.22;;;19.55
41654;BMP280;30790;52.030;7.110;2022-12-11T01:23:23;100372.59;;;19.56
41654;BMP280;30790;52.030;7.110;2022-12-11T01:25:49;100374.47;;;19.55
41654;BMP280;30790;52.030;7.110;2022-12-11T01:28:14;100377.47;;;19.54
41654;BMP280;30790;52.030;7.110;2022-12-11T01:30:41;100377.47;;;19.54
41654;BMP280;30790;52.030;7.110;2022-12-11T01:33:07;100377.59;;;19.47
41654;BMP280;30790;52.030;7.110;2022-12-11T01:35:32;100385.53;;;19.49
41654;BMP280;30790;52.030;7.110;2022-12-11T01:37:58;100370.16;;;19.42
41654;BMP280;30790;52.030;7.110;2022-12-11T01:40:23;100380.66;;;19.51
41654;BMP280;30790;52.030;7.110;2022-12-11T01:42:49;100385.53;;;19.49
41654;BMP280;30790;52.030;7.110;2022-12-11T01:48:20;100379.50;;;19.47
41654;BMP280;30790;52.030;7.110;2022-12-11T01:50:49;100375.94;;;19.46
41654;BMP280;30790;52.030;7.110;2022-12-11T01:53:20;100377.03;;;19.45
41654;BMP280;30790;52.030;7.110;2022-12-11T01:55:48;100373.94;;;19.41
41654;BMP280;30790;52.030;7.110;2022-12-11T01:58:17;100378.31;;;19.42
41654;BMP280;30790;52.030;7.110;2022-12-11T02:00:42;100362.97;;;19.36
41654;BMP280;30790;52.030;7.110;2022-12-11T02:03:08;100376.09;;;19.39
41654;BMP280;30790;52.030;7.110;2022-12-11T02:05:33;100371.72;;;19.38
41654;BMP280;30790;52.030;7.110;2022-12-11T02:08:00;100369.00;;;19.38
41654;BMP280;30790;52.030;7.110;2022-12-11T02:10:45;100358.13;;;19.38
41654;BMP280;30790;52.030;7.110;2022-12-11T02:13:14;100359.19;;;19.37
41654;BMP280;30790;52.030;7.110;2022-12-11T02:15:57;100357.53;;;19.36
41654;BMP280;30790;52.030;7.110;2022-12-11T02:18:41;100349.88;;;19.33
41654;BMP280;30790;52.030;7.110;2022-12-11T02:21:23;100359.13;;;19.32
41654;BMP280;30790;52.030;7.110;2022-12-11T02:23:57;100359.38;;;19.31
41654;BMP280;30790;52.030;7.110;2022-12-11T02:26:46;100363.47;;;19.33
41654;BMP280;30790;52.030;7.110;2022-12-11T02:29:29;100353.34;;;19.29
41654;BMP280;30790;52.030;7.110;2022-12-11T02:32:02;100355.00;;;19.30
41654;BMP280;30790;52.030;7.110;2022-12-11T02:34:36;100348.72;;;19.29
41654;BMP280;30790;52.030;7.110;2022-12-11T02:37:08;100357.13;;;19.28
41654;BMP280;30790;52.030;7.110;2022-12-11T02:39:38;100357.13;;;19.28
41654;BMP280;30790;52.030;7.110;2022-12-11T02:42:07;100362.84;;;19.26
41654;BMP280;30790;52.030;7.110;2022-12-11T02:44:34;100363.91;;;19.25
41654;BMP280;30790;52.030;7.110;2022-12-11T02:47:02;100351.28;;;19.19
41654;BMP280;30790;52.030;7.110;2022-12-11T02:49:30;100354.09;;;19.24
41654;BMP280;30790;52.030;7.110;2022-12-11T02:51:57;100353.75;;;19.21
41654;BMP280;30790;52.030;7.110;2022-12-11T02:54:28;100351.03;;;19.21
41654;BMP280;30790;52.030;7.110;2022-12-11T02:57:11;100343.13;;;19.19
41654;BMP280;30790;52.030;7.110;2022-12-11T02:59:41;100342.88;;;19.21
41654;BMP280;30790;52.030;7.110;2022-12-11T03:02:07;100344.78;;;19.20
41654;BMP280;30790;52.030;7.110;2022-12-11T03:04:34;100336.88;;;19.19
41654;BMP280;30790;52.030;7.110;2022-12-11T03:07:09;100344.19;;;19.18
41654;BMP280;30790;52.030;7.110;2022-12-11T03:09:37;100324.53;;;19.16
41654;BMP280;30790;52.030;7.110;2022-12-11T03:12:04;100331.63;;;19.17
41654;BMP280;30790;52.030;7.110;2022-12-11T03:14:30;100322.31;;;19.13
41654;BMP280;30790;52.030;7.110;2022-12-11T03:17:00;100327.06;;;19.18
41654;BMP280;30790;52.030;7.110;2022-12-11T03:19:49;100343.59;;;19.16
41654;BMP280;30790;52.030;7.110;2022-12-11T03:22:33;100334.59;;;19.15
41654;BMP280;30790;52.030;7.110;2022-12-11T03:25:06;100341.69;;;19.17
41654;BMP280;30790;52.030;7.110;2022-12-11T03:27:42;100352.50;;;19.11
41654;BMP280;30790;52.030;7.110;2022-12-11T03:30:13;100344.09;;;19.13
41654;BMP280;30790;52.030;7.110;2022-12-11T03:32:49;100342.44;;;19.12
41654;BMP280;30790;52.030;7.110;2022-12-11T03:35:25;100346.25;;;19.11
41654;BMP280;30790;52.030;7.110;2022-12-11T03:37:52;100341.03;;;19.09
41654;BMP280;30790;52.030;7.110;2022-12-11T03:40:20;100350.03;;;19.10
41654;BMP280;30790;52.030;7.110;2022-12-11T03:42:49;100348.38;;;19.09
41654;BMP280;30790;52.030;7.110;2022-12-11T03:45:17;100348.38;;;19.09
41654;BMP280;30790;52.030;7.110;2022-12-11T03:47:44;100348.38;;;19.09
41654;BMP280;30790;52.030;7.110;2022-12-11T03:50:11;100348.88;;;19.06
41654;BMP280;30790;52.030;7.110;2022-12-11T03:52:40;100345.56;;;19.04
41654;BMP280;30790;52.030;7.110;2022-12-11T03:55:06;100352.41;;;19.06
41654;BMP280;30790;52.030;7.110;2022-12-11T03:57:35;100349.69;;;19.06
41654;BMP280;30790;52.030;7.110;2022-12-11T04:00:05;100339.06;;;19.05
41654;BMP280;30790;52.030;7.110;2022-12-11T04:02:30;100343.94;;;19.03
41654;BMP280;30790;52.030;7.110;2022-12-11T04:04:55;100332.22;;;19.02
41654;BMP280;30790;52.030;7.110;2022-12-11T04:07:21;100342.28;;;19.02
41654;BMP280;30790;52.030;7.110;2022-12-11T04:09:46;100338.50;;;19.03
41654;BMP280;30790;52.030;7.110;2022-12-11T04:12:12;100333.53;;;19.00
41654;BMP280;30790;52.030;7.110;2022-12-11T04:14:37;100343.59;;;18.99
41654;BMP280;30790;52.030;7.110;2022-12-11T04:17:21;100340.31;;;18.97
41654;BMP280;30790;52.030;7.110;2022-12-11T04:20:05;100349.88;;;19.00
41654;BMP280;30790;52.030;7.110;2022-12-11T04:22:49;100331.81;;;18.94
41654;BMP280;30790;52.030;7.110;2022-12-11T04:25:33;100335.69;;;18.98
41654;BMP280;30790;52.030;7.110;2022-12-11T04:27:58;100339.06;;;19.05
41654;BMP280;30790;52.030;7.110;2022-12-11T04:30:25;100329.25;;;19.04
41654;BMP280;30790;52.030;7.110;2022-12-11T04:32:51;100331.72;;;19.05
41654;BMP280;30790;52.030;7.110;2022-12-11T04:35:17;100335.84;;;19.08
41654;BMP280;30790;52.030;7.110;2022-12-11T04:37:43;100335.84;;;19.08
41654;BMP280;30790;52.030;7.110;2022-12-11T04:40:11;100329.91;;;19.11
41654;BMP280;30790;52.030;7.110;2022-12-11T04:42:37;100324.72;;;19.09
41654;BMP280;30790;52.030;7.110;2022-12-11T04:45:03;100331.06;;;19.15
41654;BMP280;30790;52.030;7.110;2022-12-11T04:47:28;100319.84;;;19.11
41654;BMP280;30790;52.030;7.110;2022-12-11T04:49:54;100321.25;;;19.14
41654;BMP280;30790;52.030;7.110;2022-12-11T04:52:19;100321.25;;;19.14
41654;BMP280;30790;52.030;7.110;2022-12-11T04:54:44;100319.09;;;19.16
41654;BMP280;30790;52.030;7.110;2022-12-11T04:57:10;100312.84;;;19.15
41654;BMP280;30790;52.030;7.110;2022-12-11T04:59:35;100312.38;;;19.19
41654;BMP280;30790;52.030;7.110;2022-12-11T05:02:01;100311.56;;;19.18
41654;BMP280;30790;52.030;7.110;2022-12-11T05:04:30;100323.59;;;19.22
41654;BMP280;30790;52.030;7.110;2022-12-11T05:06:57;100314.59;;;19.22
41654;BMP280;30790;52.030;7.110;2022-12-11T05:09:22;100315.41;;;19.22
41654;BMP280;30790;52.030;7.110;2022-12-11T05:11:48;100321.44;;;19.24
41654;BMP280;30790;52.030;7.110;2022-12-11T05:14:13;100307.84;;;19.24
41654;BMP280;30790;52.030;7.110;2022-12-11T05:16:38;100316.06;;;19.29
41654;BMP280;30790;52.030;7.110;2022-12-11T05:19:03;100305.69;;;19.26
41654;BMP280;30790;52.030;7.110;2022-12-11T05:21:29;100311.44;;;19.30
41654;BMP280;30790;52.030;7.110;2022-12-11T05:23:54;100313.09;;;19.31
41654;BMP280;30790;52.030;7.110;2022-12-11T05:26:19;100302.72;;;19.28
41654;BMP280;30790;52.030;7.110;2022-12-11T05:28:45;100307.47;;;19.37
41654;BMP280;30790;52.030;7.110;2022-12-11T05:31:16;100316.22;;;19.39
41654;BMP280;30790;52.030;7.110;2022-12-11T05:33:43;100319.75;;;19.40
41654;BMP280;30790;52.030;7.110;2022-12-11T05:36:14;100316.22;;;19.39
41654;BMP280;30790;52.030;7.110;2022-12-11T05:38:40;100307.47;;;19.37
41654;BMP280;30790;52.030;7.110;2022-12-11T05:41:06;100310.28;;;19.42
41654;BMP280;30790;52.030;7.110;2022-12-11T05:43:33;100314.75;;;19.49
41654;BMP280;30790;52.030;7.110;2022-12-11T05:48:43;100311.03;;;19.55
41654;BMP280;30790;52.030;7.110;2022-12-11T05:51:09;100300.97;;;19.55
41654;BMP280;30790;52.030;7.110;2022-12-11T05:53:36;100304.03;;;19.59
41654;BMP280;30790;52.030;7.110;2022-12-11T05:56:03;100301.03;;;19.60
41654;BMP280;30790;52.030;7.110;2022-12-11T05:58:29;100297.56;;;19.65
41654;BMP280;30790;52.030;7.110;2022-12-11T06:00:55;100301.94;;;19.66
41654;BMP280;30790;52.030;7.110;2022-12-11T06:03:20;100300.03;;;19.66
41654;BMP280;30790;52.030;7.110;2022-12-11T06:05:45;100299.78;;;19.68
41654;BMP280;30790;52.030;7.110;2022-12-11T06:08:11;100295.47;;;19.72
41654;BMP280;30790;52.030;7.110;2022-12-11T06:10:36;100298.44;;;19.70
41654;BMP280;30790;52.030;7.110;2022-12-11T06:13:01;100300.69;;;19.73
41654;BMP280;30790;52.030;7.110;2022-12-11T06:15:27;100293.25;;;19.69
41654;BMP280;30790;52.030;7.110;2022-12-11T06:17:52;100291.94;;;19.71
41654;BMP280;30790;52.030;7.110;2022-12-11T06:20:17;100297.38;;;19.71
41654;BMP280;30790;52.030;7.110;2022-12-11T06:22:42;100291.09;;;19.71
41654;BMP280;30790;52.030;7.110;2022-12-11T06:28:23;100296.41;;;19.78
41654;BMP280;30790;52.030;7.110;2022-12-11T06:30:48;100290.44;;;20.02
41654;BMP280;30790;52.030;7.110;2022-12-11T06:33:13;100291.56;;;20.28
41654;BMP280;30790;52.030;7.110;2022-12-11T06:35:39;100297.78;;;20.46
41654;BMP280;30790;52.030;7.110;2022-12-11T06:38:04;100287.19;;;20.49
41654;BMP280;30790;52.030;7.110;2022-12-11T06:40:29;100301.19;;;20.58
41654;BMP280;30790;52.030;7.110;2022-12-11T06:42:54;100293.75;;;20.53
41654;BMP280;30790;52.030;7.110;2022-12-11T06:45:20;100278.47;;;20.52
41654;BMP280;30790;52.030;7.110;2022-12-11T06:47:45;100282.28;;;20.51
41654;BMP280;30790;52.030;7.110;2022-12-11T06:50:10;100284.75;;;20.53
41654;BMP280;30790;52.030;7.110;2022-12-11T06:52:36;100281.16;;;20.47
41654;BMP280;30790;52.030;7.110;2022-12-11T06:55:01;100280.72;;;20.55
41654;BMP280;30790;52.030;7.110;2022-12-11T06:57:27;100290.69;;;20.72
41654;BMP280;30790;52.030;7.110;2022-12-11T06:59:52;100286.34;;;20.76
41654;BMP280;30790;52.030;7.110;2022-12-11T07:02:18;100294.56;;;20.81
41654;BMP280;30790;52.030;7.110;2022-12-11T07:04:44;100284.75;;;20.80
41654;BMP280;30790;52.030;7.110;2022-12-11T07:07:10;100290.00;;;20.86
41654;BMP280;30790;52.030;7.110;2022-12-11T07:09:37;100288.41;;;20.90
41654;BMP280;30790;52.030;7.110;2022-12-11T07:12:03;100288.19;;;20.97
41654;BMP280;30790;52.030;7.110;2022-12-11T07:14:29;100293.09;;;21.00
41654;BMP280;30790;52.030;7.110;2022-12-11T07:16:56;100304.63;;;21.07
41654;BMP280;30790;52.030;7.110;2022-12-11T07:19:21;100312.53;;;21.09
41654;BMP280;30790;52.030;7.110;2022-12-11T07:21:46;100306.53;;;21.07
41654;BMP280;30790;52.030;7.110;2022-12-11T07:24:12;100309.81;;;21.09
41654;BMP280;30790;52.030;7.110;2022-12-11T07:26:37;100313.88;;;21.06
41654;BMP280;30790;52.030;7.110;2022-12-11T07:29:02;100313.06;;;21.06
41654;BMP280;30790;52.030;7.110;2022-12-11T07:31:28;100311.13;;;21.01
41654;BMP280;30790;52.030;7.110;2022-12-11T07:33:59;100300.72;;;20.98
41654;BMP280;30790;52.030;7.110;2022-12-11T07:36:26;100311.66;;;20.98
41654;BMP280;30790;52.030;7.110;2022-12-11T07:38:52;100314.13;;;20.99
41654;BMP280;30790;52.030;7.110;2022-12-11T07:41:18;100310.81;;;20.97
41654;BMP280;30790;52.030;7.110;2022-12-11T07:43:43;100306.41;;;20.91
41654;BMP280;30790;52.030;7.110;2022-12-11T07:46:12;100318.97;;;20.92
41654;BMP280;30790;52.030;7.110;2022-12-11T07:48:39;100317.03;;;20.88
41654;BMP280;30790;52.030;7.110;2022-12-11T07:51:08;100316.97;;;20.83
41654;BMP280;30790;52.030;7.110;2022-12-11T07:53:34;100309.88;;;20.82
41654;BMP280;30790;52.030;7.110;2022-12-11T07:55:59;100307.91;;;20.77
41654;BMP280;30790;52.030;7.110;2022-12-11T07:58:24;100307.91;;;20.77
41654;BMP280;30790;52.030;7.110;2022-12-11T08:00:50;100308.16;;;20.76
41654;BMP280;30790;52.030;7.110;2022-12-11T08:03:16;100303.22;;;20.73
41654;BMP280;30790;52.030;7.110;2022-12-11T08:05:47;100309.75;;;20.72
41654;BMP280;30790;52.030;7.110;2022-12-11T08:08:13;100304.84;;;20.68
41654;BMP280;30790;52.030;7.110;2022-12-11T08:10:38;100299.91;;;20.65
41654;BMP280;30790;52.030;7.110;2022-12-11T08:13:03;100303.69;;;20.64
41654;BMP280;30790;52.030;7.110;2022-12-11T08:15:29;100307.50;;;20.63
41654;BMP280;30790;52.030;7.110;2022-12-11T08:17:54;100308.28;;;20.59
41654;BMP280;30790;52.030;7.110;2022-12-11T08:20:19;100300.03;;;20.54
41654;BMP280;30790;52.030;7.110;2022-12-11T08:22:45;100302.53;;;20.55
41654;BMP280;30790;52.030;7.110;2022-12-11T08:25:10;100303.03;;;20.52
41654;BMP280;30790;52.030;7.110;2022-12-11T08:27:35;100292.94;;;20.53
41654;BMP280;30790;52.030;7.110;2022-12-11T08:30:00;100301.38;;;20.51
41654;BMP280;30790;52.030;7.110;2022-12-11T08:32:26;100309.56;;;20.51
41654;BMP280;30790;52.030;7.110;2022-12-11T08:34:51;100306.81;;;20.51
41654;BMP280;30790;52.030;7.110;2022-12-11T08:37:16;100304.88;;;20.47
41654;BMP280;30790;52.030;7.110;2022-12-11T08:39:41;100310.00;;;20.43
41654;BMP280;30790;52.030;7.110;2022-12-11T08:42:07;100312.19;;;20.41
41654;BMP280;30790;52.030;7.110;2022-12-11T08:44:33;100315.13;;;20.40
41654;BMP280;30790;52.030;7.110;2022-12-11T08:46:58;100317.28;;;20.37
41654;BMP280;30790;52.030;7.110;2022-12-11T08:49:23;100312.09;;;20.36
41654;BMP280;30790;52.030;7.110;2022-12-11T08:51:49;100319.44;;;20.35
41654;BMP280;30790;52.030;7.110;2022-12-11T08:54:14;100311.00;;;20.37
41654;BMP280;30790;52.030;7.110;2022-12-11T08:56:39;100317.13;;;20.44
41654;BMP280;30790;52.030;7.110;2022-12-11T08:59:04;100304.56;;;20.43
41654;BMP280;30790;52.030;7.110;2022-12-11T09:01:30;100311.72;;;20.49
41654;BMP280;30790;52.030;7.110;2022-12-11T09:03:56;100310.13;;;20.53
41654;BMP280;30790;52.030;7.110;2022-12-11T09:06:23;100302.75;;;20.54
41654;BMP280;30790;52.030;7.110;2022-12-11T09:08:51;100302.75;;;20.54
41654;BMP280;30790;52.030;7.110;2022-12-11T09:11:20;100310.13;;;20.53
41654;BMP280;30790;52.030;7.110;2022-12-11T09:13:45;100305.75;;;20.52
41654;BMP280;30790;52.030;7.110;2022-12-11T09:16:16;100307.91;;;20.50
41654;BMP280;30790;52.030;7.110;2022-12-11T09:18:44;100302.41;;;20.45
41654;BMP280;30790;52.030;7.110;2022-12-11T09:21:12;100302.41;;;20.45
41654;BMP280;30790;52.030;7.110;2022-12-11T09:23:38;100303.75;;;20.43
41654;BMP280;30790;52.030;7.110;2022-12-11T09:26:05;100301.28;;;20.41
41654;BMP280;30790;52.030;7.110;2022-12-11T09:28:31;100296.81;;;20.35
41654;BMP280;30790;52.030;7.110;2022-12-11T09:30:57;100298.47;;;20.36
41654;BMP280;30790;52.030;7.110;2022-12-11T09:33:22;100296.81;;;20.35
41654;BMP280;30790;52.030;7.110;2022-12-11T09:35:59;100298.41;;;20.31
41654;BMP280;30790;52.030;7.110;2022-12-11T09:38:25;100296.50;;;20.31
41654;BMP280;30790;52.030;7.110;2022-12-11T09:40:50;100288.84;;;20.28
41654;BMP280;30790;52.030;7.110;2022-12-11T09:43:35;100291.56;;;20.28
41654;BMP280;30790;52.030;7.110;2022-12-11T09:46:04;100291.22;;;20.25
41654;BMP280;30790;52.030;7.110;2022-12-11T09:48:32;100297.75;;;20.24
41654;BMP280;30790;52.030;7.110;2022-12-11T09:51:01;100294.72;;;20.20
41654;BMP280;30790;52.030;7.110;2022-12-11T09:53:33;100293.91;;;20.20
41654;BMP280;30790;52.030;7.110;2022-12-11T10:01:25;100287.84;;;20.13
41654;BMP280;30790;52.030;7.110;2022-12-11T10:07:11;100287.28;;;20.11
41654;BMP280;30790;52.030;7.110;2022-12-11T10:09:48;100289.19;;;20.10
41654;BMP280;30790;52.030;7.110;2022-12-11T10:12:35;100288.34;;;20.10
41654;BMP280;30790;52.030;7.110;2022-12-11T10:15:33;100281.50;;;20.07
41654;BMP280;30790;52.030;7.110;2022-12-11T10:18:00;100286.13;;;20.06
41654;BMP280;30790;52.030;7.110;2022-12-11T10:20:31;100288.28;;;20.04
41654;BMP280;30790;52.030;7.110;2022-12-11T10:23:02;100292.66;;;20.05
41654;BMP280;30790;52.030;7.110;2022-12-11T10:25:31;100285.00;;;20.02
41654;BMP280;30790;52.030;7.110;2022-12-11T10:27:56;100284.19;;;20.02
41654;BMP280;30790;52.030;7.110;2022-12-11T10:30:24;100287.72;;;20.02
41654;BMP280;30790;52.030;7.110;2022-12-11T10:35:49;100277.31;;;19.99
41654;BMP280;30790;52.030;7.110;2022-12-11T10:38:20;100275.09;;;19.96
41654;BMP280;30790;52.030;7.110;2022-12-11T10:40:49;100273.19;;;19.97
41654;BMP280;30790;52.030;7.110;2022-12-11T10:43:15;100274.84;;;19.98
41654;BMP280;30790;52.030;7.110;2022-12-11T10:45:52;100278.38;;;19.98
41654;BMP280;30790;52.030;7.110;2022-12-11T10:48:18;100280.28;;;19.98
41654;BMP280;30790;52.030;7.110;2022-12-11T10:50:45;100275.44;;;20.00
41654;BMP280;30790;52.030;7.110;2022-12-11T10:53:20;100277.31;;;19.99
41654;BMP280;30790;52.030;7.110;2022-12-11T10:55:47;100279.81;;;20.01
41654;BMP280;30790;52.030;7.110;2022-12-11T10:58:22;100269.13;;;19.99
41654;BMP280;30790;52.030;7.110;2022-12-11T11:01:05;100272.94;;;19.98
41654;BMP280;30790;52.030;7.110;2022-12-11T11:03:32;100277.91;;;20.01
41654;BMP280;30790;52.030;7.110;2022-12-11T11:06:18;100277.31;;;19.99
41654;BMP280;30790;52.030;7.110;2022-12-11T11:08:46;100276.25;;;20.00
41654;BMP280;30790;52.030;7.110;2022-12-11T11:11:20;100276.50;;;19.99
41654;BMP280;30790;52.030;7.110;2022-12-11T11:13:47;100270.72;;;19.95
41654;BMP280;30790;52.030;7.110;2022-12-11T11:16:14;100259.81;;;19.95
41654;BMP280;30790;52.030;7.110;2022-12-11T11:18:54;100264.44;;;19.95
41654;BMP280;30790;52.030;7.110;2022-12-11T11:21:22;100263.38;;;19.96
41654;BMP280;30790;52.030;7.110;2022-12-11T11:23:49;100247.78;;;19.91
41654;BMP280;30790;52.030;7.110;2022-12-11T11:26:15;100247.78;;;19.91
41654;BMP280;30790;52.030;7.110;2022-12-11T11:28:50;100252.41;;;19.91
41654;BMP280;30790;52.030;7.110;2022-12-11T11:31:17;100247.22;;;19.89
41654;BMP280;30790;52.030;7.110;2022-12-11T11:33:53;100252.94;;;19.88
41654;BMP280;30790;52.030;7.110;2022-12-11T11:36:26;100257.00;;;19.85
41654;BMP280;30790;52.030;7.110;2022-12-11T11:39:16;100254.84;;;19.87
41654;BMP280;30790;52.030;7.110;2022-12-11T11:41:52;100258.91;;;19.85
41654;BMP280;30790;52.030;7.110;2022-12-11T11:44:38;100255.84;;;19.81
41654;BMP280;30790;52.030;7.110;2022-12-11T11:47:13;100253.38;;;19.80
41654;BMP280;30790;52.030;7.110;2022-12-11T11:55:14;100244.66;;;19.78
41654;BMP280;30790;52.030;7.110;2022-12-11T11:57:52;100251.44;;;19.75
41654;BMP280;30790;52.030;7.110;2022-12-11T12:00:23;100247.06;;;19.74
41654;BMP280;30790;52.030;7.110;2022-12-11T12:02:53;100252.00;;;19.77
41654;BMP280;30790;52.030;7.110;2022-12-11T12:05:54;100249.53;;;19.75
41654;BMP280;30790;52.030;7.110;2022-12-11T12:11:10;100255.47;;;19.72
41654;BMP280;30790;52.030;7.110;2022-12-11T12:14:06;100261.16;;;19.71
41654;BMP280;30790;52.030;7.110;2022-12-11T12:17:00;100261.16;;;19.71
41654;BMP280;30790;52.030;7.110;2022-12-11T12:25:13;100240.13;;;19.66
41654;BMP280;30790;52.030;7.110;2022-12-11T12:28:02;100239.31;;;19.66
41654;BMP280;30790;52.030;7.110;2022-12-11T12:31:02;100235.19;;;19.63
41654;BMP280;30790;52.030;7.110;2022-12-11T12:36:45;100240.38;;;19.65
41654;BMP280;30790;52.030;7.110;2022-12-11T12:39:35;100232.72;;;19.62
41654;BMP280;30790;52.030;7.110;2022-12-11T12:44:40;100229.69;;;19.58
41654;BMP280;30790;52.030;7.110;2022-12-11T12:47:13;100243.63;;;19.62
41654;BMP280;30790;52.030;7.110;2022-12-11T12:49:42;100236.53;;;19.61
41654;BMP280;30790;52.030;7.110;2022-12-11T12:52:21;100238.69;;;19.59
41654;BMP280;30790;52.030;7.110;2022-12-11T12:54:52;100232.09;;;19.55
41654;BMP280;30790;52.030;7.110;2022-12-11T12:57:39;100238.09;;;19.57
41654;BMP280;30790;52.030;7.110;2022-12-11T13:00:06;100238.09;;;19.57
41654;BMP280;30790;52.030;7.110;2022-12-11T13:02:32;100235.06;;;19.53
41654;BMP280;30790;52.030;7.110;2022-12-11T13:05:02;100229.13;;;19.56
41654;BMP280;30790;52.030;7.110;2022-12-11T13:07:30;100232.09;;;19.55
41654;BMP280;30790;52.030;7.110;2022-12-11T13:12:45;100226.91;;;19.53
41654;BMP280;30790;52.030;7.110;2022-12-11T13:15:28;100219.56;;;19.54
41654;BMP280;30790;52.030;7.110;2022-12-11T13:17:54;100224.19;;;19.53
41654;BMP280;30790;52.030;7.110;2022-12-11T13:20:25;100224.19;;;19.53
41654;BMP280;30790;52.030;7.110;2022-12-11T13:23:25;100225.47;;;19.51
41654;BMP280;30790;52.030;7.110;2022-12-11T13:25:54;100228.19;;;19.51
41654;BMP280;30790;52.030;7.110;2022-12-11T13:28:32;100221.47;;;19.53
41654;BMP280;30790;52.030;7.110;2022-12-11T13:33:41;100226.56;;;19.50
41654;BMP280;30790;52.030;7.110;2022-12-11T13:38:34;100224.34;;;19.47
41654;BMP280;30790;52.030;7.110;2022-12-11T13:41:01;100235.22;;;19.47
41654;BMP280;30790;52.030;7.110;2022-12-11T13:43:31;100230.03;;;19.45
41654;BMP280;30790;52.030;7.110;2022-12-11T13:46:02;100238.19;;;19.45
41654;BMP280;30790;52.030;7.110;2022-12-11T13:48:35;100239.84;;;19.46
41654;BMP280;30790;52.030;7.110;2022-12-11T13:51:03;100233.59;;;19.45
41654;BMP280;30790;52.030;7.110;2022-12-11T13:53:28;100237.28;;;19.39
41654;BMP280;30790;52.030;7.110;2022-12-11T13:56:06;100242.22;;;19.42
41654;BMP280;30790;52.030;7.110;2022-12-11T13:58:37;100243.28;;;19.41
41654;BMP280;30790;52.030;7.110;2022-12-11T14:01:13;100244.69;;;19.44
41654;BMP280;30790;52.030;7.110;2022-12-11T14:04:06;100241.16;;;19.43
41654;BMP280;30790;52.030;7.110;2022-12-11T14:06:34;100244.94;;;19.42
41654;BMP280;30790;52.030;7.110;2022-12-11T14:09:02;100244.94;;;19.42
41654;BMP280;30790;52.030;7.110;2022-12-11T14:11:30;100235.63;;;19.38
41654;BMP280;30790;52.030;7.110;2022-12-11T14:14:00;100249.81;;;19.40
41654;BMP280;30790;52.030;7.110;2022-12-11T14:16:27;100249.25;;;19.38
41654;BMP280;30790;52.030;7.110;2022-12-11T14:18:58;100246.78;;;19.37
41654;BMP280;30790;52.030;7.110;2022-12-11T14:21:26;100241.00;;;19.33
41654;BMP280;30790;52.030;7.110;2022-12-11T14:23:57;100253.88;;;19.38
41654;BMP280;30790;52.030;7.110;2022-12-11T14:26:25;100251.16;;;19.38
41654;BMP280;30790;52.030;7.110;2022-12-11T14:28:51;100242.97;;;19.38
41654;BMP280;30790;52.030;7.110;2022-12-11T14:31:35;100248.41;;;19.38
41654;BMP280;30790;52.030;7.110;2022-12-11T14:34:07;100245.94;;;19.36
41654;BMP280;30790;52.030;7.110;2022-12-11T14:36:36;100251.41;;;19.36
41654;BMP280;30790;52.030;7.110;2022-12-11T14:39:09;100253.03;;;19.37
41654;BMP280;30790;52.030;7.110;2022-12-11T14:41:44;100257.41;;;19.38
41654;BMP280;30790;52.030;7.110;2022-12-11T14:44:14;100250.88;;;19.39
41654;BMP280;30790;52.030;7.110;2022-12-11T14:46:49;100252.28;;;19.42
41654;BMP280;30790;52.030;7.110;2022-12-11T14:49:40;100256.41;;;19.44
41654;BMP280;30790;52.030;7.110;2022-12-11T14:52:22;100251.22;;;19.43
41654;BMP280;30790;52.030;7.110;2022-12-11T14:54:54;100256.50;;;19.50
41654;BMP280;30790;52.030;7.110;2022-12-11T14:57:26;100251.41;;;19.53